Fields, Louisiana
Current Conditions -  °F | °C
As of 2:15 PM on Saturday 25 Oct 2014 (Local Time) from KDRI Reporting Station
Clear Clear  
Wind Chill: 80°   Ceiling: Unl
Heat Index: 80°   Visibility: 10mi
Dew Point: 47°   Wind: 3mph
Humidity: 31%   Direction: 310°NW
Pressure: 30.14"   Gusts: NA
Location:  30.7059°N, 93.5527°W
Report Text: KDRI 251915Z AUTO 31003KT 10SM CLR 27/08 A3014 RMK AO2 T02670084
Loading
Personal Weather Stations






























Interactive Weather Map
Tropical Storm Tracking
New forecast layout! Learn more

10-Day Weather Forecast

Advertisements
Track Severe Weather on mobile